Time;durP1;ratioP1;P1;durP2;ratioP2;P2;SDS_P1;SDS_P2;PMS_P1;PMS_P2;Temp;Humidity;BMP_temperature;BMP_pressure;BME280_temperature;BME280_humidity;BME280_pressure;Samples;Min_cycle;Max_cycle;Signal;HPM_P1;HPM_P2
2021/07/24 00:00:26;;;;;;;14.90;9.70;;;;;;;;;;5007927;28;20026;-73
2021/07/24 00:02:51;;;;;;;17.77;10.63;;;;;;;;;;5009667;28;20018;-73
2021/07/24 00:05:16;;;;;;;17.30;10.80;;;;;;;;;;5007103;28;20344;-72
2021/07/24 00:07:42;;;;;;;14.80;9.37;;;;;;;;;;5009246;28;20272;-73
2021/07/24 00:10:07;;;;;;;15.30;10.07;;;;;;;;;;5012038;28;20296;-71
2021/07/24 00:12:32;;;;;;;14.93;10.65;;;;;;;;;;5022286;28;20048;-72
2021/07/24 00:14:58;;;;;;;14.77;9.68;;;;;;;;;;5019624;28;20042;-72
2021/07/24 00:17:24;;;;;;;15.15;10.20;;;;;;;;;;5015139;28;20018;-71
2021/07/24 00:19:49;;;;;;;15.57;10.43;;;;;;;;;;5011339;28;20018;-72
2021/07/24 00:22:14;;;;;;;18.10;10.82;;;;;;;;;;5006880;28;20037;-73
2021/07/24 00:24:39;;;;;;;16.23;10.93;;;;;;;;;;5008073;28;20152;-72
2021/07/24 00:27:08;;;;;;;18.08;10.93;;;;;;;;;;5008265;28;20072;-72
2021/07/24 00:29:33;;;;;;;17.10;10.38;;;;;;;;;;5009281;28;20155;-72
2021/07/24 00:31:58;;;;;;;15.27;10.13;;;;;;;;;;5011866;28;20120;-72
2021/07/24 00:34:23;;;;;;;17.30;10.47;;;;;;;;;;5023357;28;20096;-71
2021/07/24 00:36:49;;;;;;;15.73;10.88;;;;;;;;;;5015470;28;20300;-72
2021/07/24 00:39:14;;;;;;;16.35;10.50;;;;;;;;;;5008564;28;20148;-73
2021/07/24 00:41:43;;;;;;;18.50;11.30;;;;;;;;;;5009888;28;20033;-72
2021/07/24 00:44:08;;;;;;;17.25;10.98;;;;;;;;;;5013222;28;20293;-73
2021/07/24 00:46:35;;;;;;;16.13;9.98;;;;;;;;;;5021631;28;20045;-71
2021/07/24 00:49:00;;;;;;;16.77;10.52;;;;;;;;;;5019281;28;20023;-72
2021/07/24 00:51:28;;;;;;;15.88;9.90;;;;;;;;;;5008318;28;20162;-73
2021/07/24 00:53:54;;;;;;;18.15;10.70;;;;;;;;;;5011544;28;20030;-72
2021/07/24 00:56:19;;;;;;;16.33;10.48;;;;;;;;;;5009578;28;20045;-73
2021/07/24 00:58:44;;;;;;;17.85;11.23;;;;;;;;;;5007770;28;20026;-72
2021/07/24 01:01:10;;;;;;;17.92;10.35;;;;;;;;;;5008754;28;20029;-72
2021/07/24 01:03:35;;;;;;;16.23;11.57;;;;;;;;;;5007403;28;20283;-72
2021/07/24 01:06:00;;;;;;;16.15;10.85;;;;;;;;;;5010990;28;20313;-73
2021/07/24 01:08:26;;;;;;;16.30;10.75;;;;;;;;;;5006979;28;20026;-72
2021/07/24 01:10:51;;;;;;;16.92;10.95;;;;;;;;;;5018940;28;20371;-72
2021/07/24 01:13:17;;;;;;;16.25;10.48;;;;;;;;;;5007905;28;20358;-71
2021/07/24 01:15:47;;;;;;;17.27;11.07;;;;;;;;;;5012887;28;20029;-71
2021/07/24 01:18:12;;;;;;;18.52;11.65;;;;;;;;;;5010948;28;20180;-71
2021/07/24 01:20:38;;;;;;;16.25;10.55;;;;;;;;;;5025172;28;20508;-72
2021/07/24 01:23:03;;;;;;;18.08;11.73;;;;;;;;;;5011596;28;20014;-71
2021/07/24 01:25:28;;;;;;;16.73;10.65;;;;;;;;;;5012245;28;20075;-73
2021/07/24 01:27:53;;;;;;;18.00;11.55;;;;;;;;;;5011265;28;20389;-71
2021/07/24 01:30:19;;;;;;;18.53;11.30;;;;;;;;;;5013166;28;20029;-71
2021/07/24 01:32:44;;;;;;;19.00;11.80;;;;;;;;;;5014969;28;20272;-72
2021/07/24 01:35:09;;;;;;;17.60;11.53;;;;;;;;;;5016611;28;20300;-72
2021/07/24 01:37:34;;;;;;;20.10;11.88;;;;;;;;;;5022060;28;20616;-72
2021/07/24 01:39:59;;;;;;;18.23;12.03;;;;;;;;;;5011063;28;20033;-72
2021/07/24 01:42:24;;;;;;;22.70;12.23;;;;;;;;;;5011310;28;20285;-72
2021/07/24 01:44:50;;;;;;;18.13;11.57;;;;;;;;;;5014263;28;20550;-73
2021/07/24 01:47:15;;;;;;;19.03;12.03;;;;;;;;;;5026255;28;20289;-72
2021/07/24 01:52:46;;;;;;;19.33;12.52;;;;;;;;;;5007513;28;20365;-71
2021/07/24 01:55:13;;;;;;;17.70;12.02;;;;;;;;;;5008741;28;20128;-72
2021/07/24 01:57:40;;;;;;;20.33;12.30;;;;;;;;;;5011082;28;20026;-73
2021/07/24 02:00:10;;;;;;;17.77;11.88;;;;;;;;;;5009849;28;20034;-71
2021/07/24 02:02:36;;;;;;;20.55;12.00;;;;;;;;;;5010012;28;20021;-71
2021/07/24 02:05:02;;;;;;;19.75;12.18;;;;;;;;;;5013094;28;20037;-72
2021/07/24 02:07:28;;;;;;;18.90;11.98;;;;;;;;;;5022354;28;20022;-72
2021/07/24 02:09:54;;;;;;;20.30;12.70;;;;;;;;;;5016493;28;20030;-72
2021/07/24 02:12:19;;;;;;;19.88;12.27;;;;;;;;;;5012709;28;20033;-72
2021/07/24 02:14:45;;;;;;;18.35;12.27;;;;;;;;;;5010791;28;20022;-71
2021/07/24 02:17:10;;;;;;;24.67;12.87;;;;;;;;;;5020395;28;20108;-70
2021/07/24 02:19:36;;;;;;;21.13;13.13;;;;;;;;;;5023115;28;20346;-71
2021/07/24 02:22:01;;;;;;;19.73;12.20;;;;;;;;;;5010592;28;20026;-72
2021/07/24 02:24:26;;;;;;;19.58;11.70;;;;;;;;;;5010493;28;20026;-71
2021/07/24 02:26:51;;;;;;;20.20;12.63;;;;;;;;;;5021366;28;20203;-70
2021/07/24 02:29:16;;;;;;;20.73;12.15;;;;;;;;;;5009978;28;20038;-71
2021/07/24 02:31:41;;;;;;;19.25;12.23;;;;;;;;;;5010534;28;20022;-72
2021/07/24 02:34:07;;;;;;;18.40;12.23;;;;;;;;;;5010073;28;20033;-71
2021/07/24 02:36:32;;;;;;;23.77;13.27;;;;;;;;;;5009745;28;20280;-72
2021/07/24 02:38:57;;;;;;;19.17;12.52;;;;;;;;;;5010242;28;20269;-72
2021/07/24 02:41:22;;;;;;;20.95;12.73;;;;;;;;;;5012392;28;20030;-71
2021/07/24 02:43:48;;;;;;;18.75;12.00;;;;;;;;;;5014088;28;20088;-72
2021/07/24 02:46:18;;;;;;;19.60;12.68;;;;;;;;;;5013733;28;20038;-71
2021/07/24 02:48:44;;;;;;;20.50;13.23;;;;;;;;;;5012310;28;20810;-71
2021/07/24 02:51:09;;;;;;;19.92;12.30;;;;;;;;;;5012959;28;20041;-72
2021/07/24 02:53:34;;;;;;;20.67;12.03;;;;;;;;;;5009832;28;20933;-71
2021/07/24 02:55:59;;;;;;;22.33;12.17;;;;;;;;;;5010934;28;20293;-71
2021/07/24 02:58:24;;;;;;;23.67;13.00;;;;;;;;;;5009305;28;20849;-72
2021/07/24 03:00:49;;;;;;;20.63;12.35;;;;;;;;;;5018271;28;20292;-71
2021/07/24 03:03:15;;;;;;;18.52;12.88;;;;;;;;;;5014063;28;20280;-71
2021/07/24 03:05:40;;;;;;;20.40;12.63;;;;;;;;;;5020216;28;20026;-73
2021/07/24 03:08:05;;;;;;;17.40;12.23;;;;;;;;;;5018195;28;20059;-75
2021/07/24 03:10:30;;;;;;;20.03;13.67;;;;;;;;;;5016595;28;20071;-74
2021/07/24 03:12:55;;;;;;;20.45;12.65;;;;;;;;;;5009061;28;20264;-75
2021/07/24 03:15:20;;;;;;;19.45;11.30;;;;;;;;;;5009725;28;20152;-75
2021/07/24 03:17:46;;;;;;;18.73;11.65;;;;;;;;;;5022642;28;20117;-75
2021/07/24 03:20:11;;;;;;;17.92;11.93;;;;;;;;;;5008746;28;20512;-75
2021/07/24 03:22:36;;;;;;;19.00;12.30;;;;;;;;;;5014605;28;20018;-73
2021/07/24 03:25:02;;;;;;;19.60;13.07;;;;;;;;;;5010412;28;20037;-72
2021/07/24 03:27:27;;;;;;;19.92;12.63;;;;;;;;;;5012830;28;20936;-71
2021/07/24 03:29:52;;;;;;;20.60;13.07;;;;;;;;;;5007979;28;20029;-70
2021/07/24 03:32:17;;;;;;;19.80;12.43;;;;;;;;;;5009290;28;20069;-72
2021/07/24 03:34:42;;;;;;;19.02;12.15;;;;;;;;;;5009695;28;20882;-69
2021/07/24 03:37:08;;;;;;;20.80;11.88;;;;;;;;;;5009234;28;20025;-69
2021/07/24 03:39:33;;;;;;;19.23;12.63;;;;;;;;;;5014128;28;20026;-70
2021/07/24 03:41:58;;;;;;;20.05;11.82;;;;;;;;;;5012765;28;20333;-70
2021/07/24 03:44:23;;;;;;;18.05;11.93;;;;;;;;;;5010873;28;20450;-70
2021/07/24 03:46:48;;;;;;;19.67;12.45;;;;;;;;;;5009163;28;20030;-69
2021/07/24 03:49:14;;;;;;;19.20;12.43;;;;;;;;;;5009926;28;20559;-70
2021/07/24 03:51:39;;;;;;;21.00;13.15;;;;;;;;;;5009777;28;20312;-69
2021/07/24 03:54:04;;;;;;;20.20;12.80;;;;;;;;;;5015320;28;20476;-72
2021/07/24 03:56:30;;;;;;;16.58;11.00;;;;;;;;;;5012849;28;20446;-69
2021/07/24 03:58:55;;;;;;;21.20;12.03;;;;;;;;;;5011622;28;20026;-78
2021/07/24 04:01:23;;;;;;;20.10;12.40;;;;;;;;;;5009641;28;20296;-78
2021/07/24 04:03:48;;;;;;;18.67;11.90;;;;;;;;;;5007905;28;20030;-79
2021/07/24 04:06:19;;;;;;;19.85;12.10;;;;;;;;;;5016282;28;20026;-78
2021/07/24 04:08:44;;;;;;;17.10;11.38;;;;;;;;;;5018731;28;20031;-76
2021/07/24 04:11:10;;;;;;;19.08;12.43;;;;;;;;;;5014386;28;20087;-77
2021/07/24 04:13:36;;;;;;;19.73;12.93;;;;;;;;;;5024591;28;20021;-76
2021/07/24 04:16:01;;;;;;;21.23;12.60;;;;;;;;;;5006941;28;20108;-74
2021/07/24 04:18:30;;;;;;;18.67;10.75;;;;;;;;;;5013740;28;20556;-74
2021/07/24 04:20:55;;;;;;;18.77;12.20;;;;;;;;;;5014683;28;20029;-75
2021/07/24 04:23:20;;;;;;;19.33;12.33;;;;;;;;;;5016786;28;20065;-75
2021/07/24 04:25:45;;;;;;;17.90;10.93;;;;;;;;;;5019242;28;20335;-74
2021/07/24 04:28:10;;;;;;;18.52;12.25;;;;;;;;;;5014037;28;20323;-73
2021/07/24 04:30:36;;;;;;;20.60;12.23;;;;;;;;;;5008857;28;20065;-75
2021/07/24 04:33:01;;;;;;;18.63;11.97;;;;;;;;;;5008011;28;20378;-74
2021/07/24 04:35:26;;;;;;;16.40;11.33;;;;;;;;;;5008577;28;20355;-75
2021/07/24 04:37:51;;;;;;;17.45;11.77;;;;;;;;;;5006581;28;20273;-75
2021/07/24 04:40:16;;;;;;;16.57;11.00;;;;;;;;;;5008504;28;20022;-74
2021/07/24 04:42:41;;;;;;;17.63;11.35;;;;;;;;;;5017546;28;21158;-74
2021/07/24 04:45:07;;;;;;;18.07;11.47;;;;;;;;;;5013185;28;20020;-76
2021/07/24 04:47:33;;;;;;;18.38;10.90;;;;;;;;;;5009832;28;20289;-77
2021/07/24 04:49:58;;;;;;;18.33;11.25;;;;;;;;;;5019769;28;20025;-76
2021/07/24 04:52:23;;;;;;;16.38;10.38;;;;;;;;;;5021809;28;20115;-76
2021/07/24 04:54:49;;;;;;;16.90;10.98;;;;;;;;;;5015268;28;20025;-74
2021/07/24 04:57:15;;;;;;;15.50;10.57;;;;;;;;;;5020033;28;20044;-74
2021/07/24 04:59:46;;;;;;;19.38;10.73;;;;;;;;;;5008590;28;20030;-74
2021/07/24 05:02:15;;;;;;;17.15;11.07;;;;;;;;;;5011865;28;20040;-75
2021/07/24 05:04:40;;;;;;;17.00;11.25;;;;;;;;;;5015467;28;20033;-75
2021/07/24 05:07:05;;;;;;;16.00;11.13;;;;;;;;;;5025117;28;20054;-75
2021/07/24 05:09:31;;;;;;;15.77;10.60;;;;;;;;;;5012425;28;20033;-77
2021/07/24 05:11:56;;;;;;;14.57;10.23;;;;;;;;;;5018649;28;20031;-74
2021/07/24 05:14:21;;;;;;;15.32;10.10;;;;;;;;;;5018914;28;20367;-75
2021/07/24 05:16:46;;;;;;;17.27;11.10;;;;;;;;;;5018010;28;20099;-76
2021/07/24 05:19:11;;;;;;;15.38;11.07;;;;;;;;;;5019975;28;20280;-77
2021/07/24 05:21:36;;;;;;;15.93;10.20;;;;;;;;;;5016161;28;20474;-76
2021/07/24 05:24:02;;;;;;;16.57;11.13;;;;;;;;;;5011202;28;20367;-74
2021/07/24 05:26:27;;;;;;;17.08;11.18;;;;;;;;;;5014803;28;20301;-79
2021/07/24 05:28:52;;;;;;;22.83;10.57;;;;;;;;;;5017411;28;20079;-78
2021/07/24 05:31:18;;;;;;;15.90;10.33;;;;;;;;;;5014069;28;20044;-74
2021/07/24 05:33:43;;;;;;;17.58;10.68;;;;;;;;;;5014524;28;20100;-77
2021/07/24 05:36:09;;;;;;;17.10;10.68;;;;;;;;;;5024931;28;20124;-77
2021/07/24 05:38:34;;;;;;;16.10;9.63;;;;;;;;;;5011458;28;20473;-75
2021/07/24 05:41:02;;;;;;;15.97;10.57;;;;;;;;;;5016154;28;20385;-77
2021/07/24 05:43:27;;;;;;;17.42;10.55;;;;;;;;;;5030480;28;20640;-77
2021/07/24 05:45:52;;;;;;;15.13;9.90;;;;;;;;;;5016871;28;20038;-80
2021/07/24 05:48:17;;;;;;;15.10;10.60;;;;;;;;;;5018826;28;20359;-78
2021/07/24 05:50:42;;;;;;;16.57;10.57;;;;;;;;;;5009440;28;20292;-77
2021/07/24 05:53:07;;;;;;;15.90;10.93;;;;;;;;;;5007866;28;20292;-77
2021/07/24 05:55:33;;;;;;;15.70;10.87;;;;;;;;;;5004288;28;20034;-77
2021/07/24 05:57:58;;;;;;;15.90;10.63;;;;;;;;;;5004470;28;20661;-77
2021/07/24 06:00:23;;;;;;;14.87;9.93;;;;;;;;;;5010503;28;20018;-79
2021/07/24 06:02:48;;;;;;;23.60;11.17;;;;;;;;;;5007803;28;20042;-77
2021/07/24 06:05:13;;;;;;;14.70;9.53;;;;;;;;;;5007586;28;20303;-77
2021/07/24 06:07:39;;;;;;;17.27;10.00;;;;;;;;;;5010018;28;20083;-79
2021/07/24 06:10:04;;;;;;;16.00;9.80;;;;;;;;;;5008726;28;20488;-78
2021/07/24 06:12:29;;;;;;;15.27;10.07;;;;;;;;;;5009740;28;20100;-79
2021/07/24 06:14:54;;;;;;;16.50;9.93;;;;;;;;;;5016185;28;20112;-77
2021/07/24 06:17:19;;;;;;;14.23;9.77;;;;;;;;;;5012569;28;20289;-75
2021/07/24 06:19:45;;;;;;;14.30;9.50;;;;;;;;;;5008612;28;20253;-78
2021/07/24 06:22:10;;;;;;;14.60;9.18;;;;;;;;;;5010427;28;20257;-79
2021/07/24 06:24:35;;;;;;;16.30;10.27;;;;;;;;;;5011934;28;20026;-79
2021/07/24 06:27:00;;;;;;;20.13;10.50;;;;;;;;;;5008895;28;20293;-79
2021/07/24 06:29:25;;;;;;;16.80;9.55;;;;;;;;;;5015410;28;20105;-78
2021/07/24 06:31:51;;;;;;;16.07;9.80;;;;;;;;;;5012017;28;20040;-78
2021/07/24 06:34:16;;;;;;;14.90;10.00;;;;;;;;;;5014639;28;20356;-78
2021/07/24 06:36:41;;;;;;;16.97;10.03;;;;;;;;;;5016341;28;20025;-80
2021/07/24 06:39:06;;;;;;;15.65;9.68;;;;;;;;;;5013859;28;20736;-77
2021/07/24 06:41:34;;;;;;;14.52;10.02;;;;;;;;;;5010037;28;20413;-78
2021/07/24 06:43:59;;;;;;;13.45;9.43;;;;;;;;;;5016253;28;20045;-78
2021/07/24 06:46:24;;;;;;;16.95;9.63;;;;;;;;;;5010763;28;20411;-79
2021/07/24 06:48:49;;;;;;;14.07;8.90;;;;;;;;;;5026143;28;20045;-79
2021/07/24 06:51:14;;;;;;;13.63;9.53;;;;;;;;;;5019128;28;20049;-80
2021/07/24 06:53:40;;;;;;;16.87;9.63;;;;;;;;;;5013663;28;20277;-79
2021/07/24 06:56:05;;;;;;;14.65;10.20;;;;;;;;;;5025957;28;20307;-79
2021/07/24 06:58:31;;;;;;;15.03;9.30;;;;;;;;;;5016272;28;20437;-79
2021/07/24 07:00:57;;;;;;;16.00;9.98;;;;;;;;;;5013570;28;20284;-79
2021/07/24 07:03:22;;;;;;;17.17;9.77;;;;;;;;;;5012459;28;20036;-78
2021/07/24 07:05:49;;;;;;;15.33;9.87;;;;;;;;;;5025604;28;20037;-76
2021/07/24 07:08:15;;;;;;;15.77;10.35;;;;;;;;;;5010696;28;20268;-79
2021/07/24 07:10:40;;;;;;;16.33;10.75;;;;;;;;;;5014702;28;20021;-75
2021/07/24 07:13:05;;;;;;;16.13;9.20;;;;;;;;;;5018824;28;20030;-76
2021/07/24 07:15:31;;;;;;;13.98;9.15;;;;;;;;;;5012179;28;20104;-78
2021/07/24 07:17:56;;;;;;;15.27;10.30;;;;;;;;;;5012359;28;20053;-78
2021/07/24 07:20:21;;;;;;;14.33;9.93;;;;;;;;;;5016825;28;20028;-80
2021/07/24 07:22:47;;;;;;;15.52;9.75;;;;;;;;;;5016888;28;20640;-79
2021/07/24 07:25:12;;;;;;;18.60;10.45;;;;;;;;;;5024989;28;20393;-77
2021/07/24 07:27:41;;;;;;;16.25;10.30;;;;;;;;;;5017372;28;20033;-78
2021/07/24 07:30:06;;;;;;;15.32;10.20;;;;;;;;;;5016252;28;20033;-77
2021/07/24 07:32:31;;;;;;;18.17;10.73;;;;;;;;;;5011468;28;20030;-78
2021/07/24 07:34:57;;;;;;;18.67;9.90;;;;;;;;;;5039257;28;20040;-77
2021/07/24 07:37:22;;;;;;;16.15;9.45;;;;;;;;;;5018134;28;20287;-78
2021/07/24 07:39:47;;;;;;;19.17;9.97;;;;;;;;;;5017787;28;20021;-77
2021/07/24 07:42:12;;;;;;;14.20;9.93;;;;;;;;;;5019205;28;20362;-76
2021/07/24 07:44:38;;;;;;;18.63;10.57;;;;;;;;;;5011191;28;20743;-77
2021/07/24 07:47:04;;;;;;;17.38;11.10;;;;;;;;;;5015770;28;20358;-77
2021/07/24 07:49:29;;;;;;;17.95;11.60;;;;;;;;;;5011870;28;20034;-77
2021/07/24 07:51:54;;;;;;;18.83;11.13;;;;;;;;;;5018828;28;20033;-76
2021/07/24 07:54:19;;;;;;;21.80;11.60;;;;;;;;;;5014608;28;20281;-75
2021/07/24 07:56:44;;;;;;;16.60;10.60;;;;;;;;;;5010292;28;20284;-75
2021/07/24 07:59:10;;;;;;;18.77;10.93;;;;;;;;;;5010580;28;20324;-67
2021/07/24 08:01:35;;;;;;;18.97;10.63;;;;;;;;;;5021476;28;20343;-67
2021/07/24 08:04:00;;;;;;;20.30;12.03;;;;;;;;;;5014261;28;20313;-68
2021/07/24 08:06:25;;;;;;;18.05;11.55;;;;;;;;;;5016306;28;20764;-67
2021/07/24 08:08:50;;;;;;;16.33;10.85;;;;;;;;;;5014153;28;20057;-67
2021/07/24 08:11:16;;;;;;;20.40;10.47;;;;;;;;;;5016175;28;20268;-66
2021/07/24 08:13:41;;;;;;;15.18;10.18;;;;;;;;;;5021928;28;20260;-68
2021/07/24 08:16:14;;;;;;;18.00;9.70;;;;;;;;;;5009499;28;20503;-68
2021/07/24 08:18:39;;;;;;;15.07;10.13;;;;;;;;;;5008758;28;20779;-67
2021/07/24 08:21:04;;;;;;;17.90;10.45;;;;;;;;;;5010932;28;20086;-68
2021/07/24 08:23:29;;;;;;;16.90;9.65;;;;;;;;;;5022611;28;20091;-68
2021/07/24 08:25:55;;;;;;;14.52;9.70;;;;;;;;;;5016300;28;20080;-66
2021/07/24 08:28:20;;;;;;;15.48;10.25;;;;;;;;;;5012665;28;20026;-65
2021/07/24 08:30:45;;;;;;;14.95;10.13;;;;;;;;;;5012052;28;20029;-66
2021/07/24 08:33:11;;;;;;;18.60;10.45;;;;;;;;;;5012641;28;20024;-66
2021/07/24 08:35:36;;;;;;;19.05;10.38;;;;;;;;;;5014092;28;20026;-68
2021/07/24 08:38:01;;;;;;;17.33;10.25;;;;;;;;;;5014322;28;20401;-68
2021/07/24 08:40:26;;;;;;;17.80;9.98;;;;;;;;;;5009336;28;20388;-68
2021/07/24 08:42:52;;;;;;;16.20;10.10;;;;;;;;;;5018064;28;20042;-68
2021/07/24 08:45:20;;;;;;;18.70;10.20;;;;;;;;;;5013143;28;20030;-68
2021/07/24 08:47:45;;;;;;;15.98;10.02;;;;;;;;;;5030634;28;20040;-68
2021/07/24 08:50:11;;;;;;;15.32;9.75;;;;;;;;;;5013980;28;20026;-69
2021/07/24 08:52:36;;;;;;;16.20;10.48;;;;;;;;;;5011453;28;20445;-68
2021/07/24 08:55:04;;;;;;;16.30;10.20;;;;;;;;;;5018670;28;20100;-68
2021/07/24 08:57:33;;;;;;;17.17;10.50;;;;;;;;;;5025097;28;20037;-69
2021/07/24 09:00:01;;;;;;;19.58;11.23;;;;;;;;;;5021818;28;20524;-69
2021/07/24 09:02:28;;;;;;;18.48;10.55;;;;;;;;;;5010841;28;20034;-68
2021/07/24 09:04:53;;;;;;;19.92;10.98;;;;;;;;;;5018133;28;20052;-68
2021/07/24 09:07:20;;;;;;;16.67;11.20;;;;;;;;;;5017696;28;20481;-68
2021/07/24 09:09:46;;;;;;;18.92;10.63;;;;;;;;;;5022720;28;20024;-64
2021/07/24 09:12:11;;;;;;;16.92;10.80;;;;;;;;;;5020553;28;20064;-64
2021/07/24 09:14:37;;;;;;;20.15;12.70;;;;;;;;;;5017412;28;20063;-67
2021/07/24 09:17:02;;;;;;;22.10;11.90;;;;;;;;;;5014001;28;20536;-67
2021/07/24 09:19:29;;;;;;;16.48;10.95;;;;;;;;;;5020213;28;20026;-66
2021/07/24 09:21:54;;;;;;;16.50;10.43;;;;;;;;;;5018065;28;20026;-67
2021/07/24 09:24:23;;;;;;;17.73;11.83;;;;;;;;;;5020816;28;20028;-68
2021/07/24 09:26:48;;;;;;;19.10;11.00;;;;;;;;;;5016250;28;20323;-68
2021/07/24 09:29:17;;;;;;;17.90;10.70;;;;;;;;;;5011703;28;20586;-68
2021/07/24 09:31:42;;;;;;;19.48;11.43;;;;;;;;;;5019059;28;20148;-69
2021/07/24 09:34:10;;;;;;;16.13;10.70;;;;;;;;;;5013014;28;20556;-68
2021/07/24 09:36:35;;;;;;;17.63;10.70;;;;;;;;;;5013574;28;20029;-68
2021/07/24 09:39:13;;;;;;;17.88;9.95;;;;;;;;;;5015545;28;20018;-68
2021/07/24 09:41:40;;;;;;;17.75;10.68;;;;;;;;;;5010849;28;20440;-68
2021/07/24 09:44:05;;;;;;;18.05;9.95;;;;;;;;;;5011672;28;20485;-68
2021/07/24 09:46:30;;;;;;;17.27;10.07;;;;;;;;;;5018501;28;20038;-68
2021/07/24 09:48:55;;;;;;;16.48;9.05;;;;;;;;;;5013090;28;20474;-68
2021/07/24 09:51:37;;;;;;;18.17;9.43;;;;;;;;;;5016792;28;20033;-68
2021/07/24 09:54:05;;;;;;;17.20;9.82;;;;;;;;;;5017887;28;20079;-68
2021/07/24 09:56:41;;;;;;;18.10;9.90;;;;;;;;;;5021432;28;20476;-68
2021/07/24 09:59:17;;;;;;;15.40;10.35;;;;;;;;;;5015914;28;20037;-68
2021/07/24 10:01:43;;;;;;;15.82;9.60;;;;;;;;;;5019976;28;20060;-68
2021/07/24 10:04:10;;;;;;;20.90;11.23;;;;;;;;;;5018946;28;20034;-67
2021/07/24 10:06:37;;;;;;;16.80;9.32;;;;;;;;;;5020090;28;20033;-67
2021/07/24 10:09:02;;;;;;;15.77;9.32;;;;;;;;;;5018963;28;20022;-68
2021/07/24 10:11:27;;;;;;;16.00;8.68;;;;;;;;;;5009667;28;20030;-67
2021/07/24 10:13:53;;;;;;;16.37;9.50;;;;;;;;;;5011201;28;20029;-67
2021/07/24 10:16:18;;;;;;;14.67;8.40;;;;;;;;;;5016742;28;20346;-67
2021/07/24 10:18:43;;;;;;;17.63;10.00;;;;;;;;;;5020100;28;20276;-68
2021/07/24 10:21:09;;;;;;;17.47;10.10;;;;;;;;;;5019873;28;20034;-67
2021/07/24 10:23:34;;;;;;;17.30;10.30;;;;;;;;;;5019480;28;21100;-68
2021/07/24 10:25:59;;;;;;;21.50;11.60;;;;;;;;;;5015876;28;20292;-67
2021/07/24 10:28:31;;;;;;;19.88;10.43;;;;;;;;;;5018476;28;20350;-67
2021/07/24 10:30:57;;;;;;;16.65;10.52;;;;;;;;;;5016034;28;20034;-66
2021/07/24 10:33:23;;;;;;;19.70;10.25;;;;;;;;;;5016592;28;20029;-66
2021/07/24 10:35:48;;;;;;;18.25;9.98;;;;;;;;;;5019563;28;20040;-68
2021/07/24 10:38:46;;;;;;;14.35;9.57;;;;;;;;;;5018611;28;20029;-66
2021/07/24 10:41:23;;;;;;;17.40;9.68;;;;;;;;;;4965963;28;20482;-67
2021/07/24 10:44:01;;;;;;;15.43;9.73;;;;;;;;;;4964509;28;20121;-67
2021/07/24 10:46:44;;;;;;;17.13;10.10;;;;;;;;;;4968252;28;20041;-67
2021/07/24 10:49:21;;;;;;;14.52;8.70;;;;;;;;;;4967250;28;20062;-67
2021/07/24 10:51:53;;;;;;;16.30;10.18;;;;;;;;;;4968277;28;20023;-67
2021/07/24 10:54:18;;;;;;;14.32;9.07;;;;;;;;;;4972519;28;20392;-67
2021/07/24 10:56:43;;;;;;;14.57;9.60;;;;;;;;;;4968529;28;20081;-66
2021/07/24 10:59:14;;;;;;;15.90;9.10;;;;;;;;;;4966674;28;20768;-66
2021/07/24 11:01:47;;;;;;;15.65;9.07;;;;;;;;;;4970154;28;20141;-67
2021/07/24 11:04:30;;;;;;;13.75;9.00;;;;;;;;;;4969190;28;20385;-66
2021/07/24 11:07:17;;;;;;;18.75;10.25;;;;;;;;;;4965653;28;20061;-68
2021/07/24 11:09:43;;;;;;;16.55;9.55;;;;;;;;;;4964112;28;20038;-67
2021/07/24 11:12:14;;;;;;;14.25;9.40;;;;;;;;;;4965618;28;20026;-67
2021/07/24 11:14:41;;;;;;;14.00;9.70;;;;;;;;;;4965855;28;20066;-67
2021/07/24 11:17:12;;;;;;;17.15;9.60;;;;;;;;;;4997055;28;20033;-68
2021/07/24 11:19:41;;;;;;;15.35;9.20;;;;;;;;;;5016006;28;20056;-68
2021/07/24 11:22:06;;;;;;;18.40;10.38;;;;;;;;;;5015965;28;20484;-67
2021/07/24 11:24:32;;;;;;;13.80;8.80;;;;;;;;;;5008520;28;20026;-67
2021/07/24 11:26:58;;;;;;;17.52;9.55;;;;;;;;;;5015311;28;20053;-68
2021/07/24 11:29:23;;;;;;;15.23;8.50;;;;;;;;;;5008982;28;20135;-68
2021/07/24 11:31:49;;;;;;;13.97;8.80;;;;;;;;;;5016024;28;20025;-69
2021/07/24 11:34:15;;;;;;;16.50;9.50;;;;;;;;;;5009478;28;20021;-68
2021/07/24 11:36:40;;;;;;;15.88;8.82;;;;;;;;;;5026358;28;20025;-68
2021/07/24 11:39:05;;;;;;;13.50;8.83;;;;;;;;;;5011327;28;20067;-68
2021/07/24 11:41:30;;;;;;;17.57;9.43;;;;;;;;;;5014799;28;20268;-67
2021/07/24 11:43:59;;;;;;;14.27;8.48;;;;;;;;;;5028210;28;20057;-68
2021/07/24 11:46:24;;;;;;;14.00;9.15;;;;;;;;;;5009706;28;20038;-68
2021/07/24 11:49:00;;;;;;;13.20;8.83;;;;;;;;;;5009806;28;20500;-67
2021/07/24 11:51:25;;;;;;;15.73;9.15;;;;;;;;;;5005133;28;20018;-67
2021/07/24 11:53:50;;;;;;;12.50;8.70;;;;;;;;;;5009668;28;20029;-66
2021/07/24 11:56:19;;;;;;;12.23;8.15;;;;;;;;;;5012214;28;20269;-66
2021/07/24 11:58:51;;;;;;;14.65;8.35;;;;;;;;;;5002050;28;20081;-67
2021/07/24 12:01:24;;;;;;;14.60;9.13;;;;;;;;;;5018359;28;20030;-68
2021/07/24 12:04:02;;;;;;;14.40;8.48;;;;;;;;;;5002015;28;20064;-67
2021/07/24 12:06:27;;;;;;;15.52;9.30;;;;;;;;;;5008767;28;20087;-68
2021/07/24 12:08:53;;;;;;;12.25;8.60;;;;;;;;;;5008112;28;20018;-68
2021/07/24 12:11:19;;;;;;;12.63;8.93;;;;;;;;;;5014699;28;20856;-67
2021/07/24 12:13:45;;;;;;;16.45;8.45;;;;;;;;;;5020699;28;20028;-68
2021/07/24 12:16:12;;;;;;;15.10;9.10;;;;;;;;;;5008502;28;20397;-67
2021/07/24 12:18:52;;;;;;;16.63;8.48;;;;;;;;;;5012052;28;20426;-67
2021/07/24 12:21:22;;;;;;;12.75;8.32;;;;;;;;;;5005206;28;20021;-67
2021/07/24 12:23:53;;;;;;;15.85;8.85;;;;;;;;;;5020229;28;20068;-68
2021/07/24 12:26:19;;;;;;;14.05;9.38;;;;;;;;;;5026723;28;20045;-66
2021/07/24 12:28:44;;;;;;;14.32;9.48;;;;;;;;;;5016513;28;20100;-67
2021/07/24 12:31:21;;;;;;;13.65;8.75;;;;;;;;;;5017708;28;20116;-67
2021/07/24 12:33:53;;;;;;;15.32;9.07;;;;;;;;;;5012462;28;20101;-68
2021/07/24 12:36:22;;;;;;;13.15;8.60;;;;;;;;;;5010745;28;20041;-67
2021/07/24 12:38:48;;;;;;;15.27;8.75;;;;;;;;;;5004671;28;20026;-66
2021/07/24 12:41:13;;;;;;;15.40;9.27;;;;;;;;;;5015838;28;20026;-67
2021/07/24 12:43:43;;;;;;;14.23;8.87;;;;;;;;;;5015709;28;20042;-67
2021/07/24 12:46:08;;;;;;;;;;;;;;;;;;5012459;28;20394;-68
2021/07/24 12:48:41;;;;;;;12.02;7.93;;;;;;;;;;5009903;28;19988;-70
2021/07/24 12:51:07;;;;;;;10.43;7.13;;;;;;;;;;5005178;28;20109;-68
2021/07/24 12:53:32;;;;;;;14.35;9.27;;;;;;;;;;5016646;28;20113;-67
2021/07/24 12:55:57;;;;;;;12.77;7.90;;;;;;;;;;5012226;28;20411;-68
2021/07/24 12:58:23;;;;;;;13.27;8.38;;;;;;;;;;4998573;28;20216;-69
2021/07/24 13:00:48;;;;;;;14.55;8.40;;;;;;;;;;5022306;28;20038;-68
2021/07/24 13:03:14;;;;;;;12.87;7.70;;;;;;;;;;5018728;28;20018;-67
2021/07/24 13:05:39;;;;;;;12.38;7.63;;;;;;;;;;5020606;28;20280;-67
2021/07/24 13:08:04;;;;;;;10.80;7.50;;;;;;;;;;5007220;28;20085;-67
2021/07/24 13:10:30;;;;;;;11.60;8.45;;;;;;;;;;5014401;28;20779;-67
2021/07/24 13:12:55;;;;;;;12.10;7.10;;;;;;;;;;5012958;28;20109;-68
2021/07/24 13:15:20;;;;;;;11.80;8.07;;;;;;;;;;5016168;28;20390;-67
2021/07/24 13:17:45;;;;;;;12.87;8.17;;;;;;;;;;5011486;28;20025;-68
2021/07/24 13:20:11;;;;;;;13.55;8.15;;;;;;;;;;5010050;28;20022;-68
2021/07/24 13:22:37;;;;;;;12.77;7.22;;;;;;;;;;5009159;28;20362;-68
2021/07/24 13:25:09;;;;;;;13.95;8.27;;;;;;;;;;5014883;28;20413;-68
2021/07/24 13:30:19;;;;;;;14.00;8.73;;;;;;;;;;5006086;28;20038;-68
2021/07/24 13:32:44;;;;;;;14.32;9.18;;;;;;;;;;5011807;28;20034;-67
2021/07/24 13:35:10;;;;;;;14.07;8.95;;;;;;;;;;5018696;28;20538;-67
2021/07/24 13:37:38;;;;;;;14.43;9.40;;;;;;;;;;5031439;28;20570;-66
2021/07/24 13:40:04;;;;;;;16.40;8.82;;;;;;;;;;5018479;28;20022;-68
2021/07/24 13:42:30;;;;;;;16.42;9.80;;;;;;;;;;5012001;28;20046;-67
2021/07/24 13:44:55;;;;;;;12.90;8.82;;;;;;;;;;5011559;28;20489;-67
2021/07/24 13:47:23;;;;;;;14.87;9.57;;;;;;;;;;5018517;28;20029;-67
2021/07/24 13:49:49;;;;;;;14.10;9.57;;;;;;;;;;5029576;28;20562;-67
2021/07/24 13:52:14;;;;;;;16.73;10.13;;;;;;;;;;5018777;28;20022;-68
2021/07/24 13:54:39;;;;;;;16.30;9.25;;;;;;;;;;5028472;28;20300;-67
2021/07/24 13:57:04;;;;;;;16.00;9.02;;;;;;;;;;5012051;28;20033;-67
2021/07/24 13:59:29;;;;;;;15.85;9.98;;;;;;;;;;5021668;28;20532;-67
2021/07/24 14:01:55;;;;;;;14.27;8.93;;;;;;;;;;5022292;28;20649;-66
2021/07/24 14:04:20;;;;;;;16.80;11.20;;;;;;;;;;5026407;28;20029;-68
2021/07/24 14:06:45;;;;;;;15.77;9.90;;;;;;;;;;5018095;28;20030;-67
2021/07/24 14:09:10;;;;;;;15.67;10.30;;;;;;;;;;5024468;28;20274;-68
2021/07/24 14:11:36;;;;;;;15.53;9.63;;;;;;;;;;5017753;28;20029;-67
2021/07/24 14:14:01;;;;;;;16.33;10.00;;;;;;;;;;5028986;28;20300;-67
2021/07/24 14:16:27;;;;;;;13.80;9.03;;;;;;;;;;5015232;28;20367;-67
2021/07/24 14:18:52;;;;;;;14.82;9.18;;;;;;;;;;5030811;28;20719;-68
2021/07/24 14:21:18;;;;;;;13.93;9.97;;;;;;;;;;5010831;28;20112;-67